Terminal Aerodrome Forecast
Issued by NWS Wichita, KS

Home | Current Version | Previous Version | Text Only | Print | Product List | Glossary On
Versions: 1 2 3 4 5 6 7 8 9 10 11 12 13 14 15 16 17 18 19 20 21 22 23 24 25 26 27 28 29
000
FTUS43 KICT 301120
TAFICT
TAF
KICT 301120Z 3012/3112 35016G24KT P6SM FEW009 OVC014
     FM301500 35015G23KT P6SM BKN020
     FM301900 36012KT P6SM SCT035
     FM310400 02007KT P6SM SKC=

USA.gov is the U.S. government's official web portal to all federal, state and local government web resources and services.